Terminal Aerodrome Forecast
Issued by NWS Charleston, WV

Current Version | Previous Version | Text Only | Print | Product List | Glossary Off
Versions: 1 2 3 4 5 6 7 8 9 10 11 12 13 14 15 16 17 18 19 20 21 22 23 24

000
FTUS41 KRLX 080200 AAA
TAFEKN
TAF AMD
KEKN 080233Z 0803/0824 24010KT P6SM FEW070
     FM080300 23005KT P6SM VCTS SCT050CB
     FM080700 23005KT P6SM SCT050
     FM081200 23007KT P6SM BKN035
     FM081600 23012G17KT P6SM VCTS BKN035CB
     FM081800 22013G19KT 6SM +SHRA BR VCTS BKN040CB
     FM082000 22014G22KT 5SM +TSRA BR BKN035CB=

USA.gov is the U.S. government's official web portal to all federal, state and local government web resources and services.